sensor_id;sensor_type;location;lat;lon;timestamp;P1;durP1;ratioP1;P2;durP2;ratioP2
28180;SDS011;15464;50.988;10.318;2023-04-15T00:00:57;9.75;;;7.47;;
28180;SDS011;15464;50.988;10.318;2023-04-15T00:03:25;17.03;;;10.90;;
28180;SDS011;15464;50.988;10.318;2023-04-15T00:05:52;10.05;;;8.27;;
28180;SDS011;15464;50.988;10.318;2023-04-15T00:08:19;12.65;;;8.02;;
28180;SDS011;15464;50.988;10.318;2023-04-15T00:10:46;9.55;;;8.57;;
28180;SDS011;15464;50.988;10.318;2023-04-15T00:13:13;10.60;;;8.77;;
28180;SDS011;15464;50.988;10.318;2023-04-15T00:15:40;15.07;;;8.57;;
28180;SDS011;15464;50.988;10.318;2023-04-15T00:18:07;12.38;;;9.43;;
28180;SDS011;15464;50.988;10.318;2023-04-15T00:20:34;12.10;;;9.98;;
28180;SDS011;15464;50.988;10.318;2023-04-15T00:23:02;10.88;;;9.10;;
28180;SDS011;15464;50.988;10.318;2023-04-15T00:25:29;11.93;;;9.75;;
28180;SDS011;15464;50.988;10.318;2023-04-15T00:27:56;13.02;;;8.38;;
28180;SDS011;15464;50.988;10.318;2023-04-15T00:30:23;9.68;;;8.65;;
28180;SDS011;15464;50.988;10.318;2023-04-15T00:32:51;15.50;;;9.77;;
28180;SDS011;15464;50.988;10.318;2023-04-15T00:35:18;9.00;;;7.60;;
28180;SDS011;15464;50.988;10.318;2023-04-15T00:37:44;10.80;;;9.70;;
28180;SDS011;15464;50.988;10.318;2023-04-15T00:40:12;9.40;;;8.48;;
28180;SDS011;15464;50.988;10.318;2023-04-15T00:42:39;11.90;;;9.48;;
28180;SDS011;15464;50.988;10.318;2023-04-15T00:45:06;14.23;;;9.15;;
28180;SDS011;15464;50.988;10.318;2023-04-15T00:47:34;12.70;;;9.32;;
28180;SDS011;15464;50.988;10.318;2023-04-15T00:50:03;9.70;;;8.63;;
28180;SDS011;15464;50.988;10.318;2023-04-15T00:52:30;10.93;;;9.15;;
28180;SDS011;15464;50.988;10.318;2023-04-15T00:54:57;10.48;;;9.43;;
28180;SDS011;15464;50.988;10.318;2023-04-15T00:57:24;12.13;;;10.07;;
28180;SDS011;15464;50.988;10.318;2023-04-15T00:59:52;9.50;;;8.02;;
28180;SDS011;15464;50.988;10.318;2023-04-15T01:02:20;15.30;;;8.90;;
28180;SDS011;15464;50.988;10.318;2023-04-15T01:04:48;10.07;;;8.88;;
28180;SDS011;15464;50.988;10.318;2023-04-15T01:07:15;12.30;;;9.93;;
28180;SDS011;15464;50.988;10.318;2023-04-15T01:09:42;11.93;;;10.45;;
28180;SDS011;15464;50.988;10.318;2023-04-15T01:12:11;12.82;;;11.25;;
28180;SDS011;15464;50.988;10.318;2023-04-15T01:14:40;11.05;;;9.85;;
28180;SDS011;15464;50.988;10.318;2023-04-15T01:17:07;14.05;;;11.05;;
28180;SDS011;15464;50.988;10.318;2023-04-15T01:19:37;12.93;;;10.07;;
28180;SDS011;15464;50.988;10.318;2023-04-15T01:22:04;12.15;;;9.32;;
28180;SDS011;15464;50.988;10.318;2023-04-15T01:24:31;11.43;;;9.70;;
28180;SDS011;15464;50.988;10.318;2023-04-15T01:27:00;13.57;;;11.20;;
28180;SDS011;15464;50.988;10.318;2023-04-15T01:29:27;12.10;;;9.07;;
28180;SDS011;15464;50.988;10.318;2023-04-15T01:31:55;12.20;;;10.70;;
28180;SDS011;15464;50.988;10.318;2023-04-15T01:34:22;16.00;;;11.07;;
28180;SDS011;15464;50.988;10.318;2023-04-15T01:36:49;11.48;;;10.27;;
28180;SDS011;15464;50.988;10.318;2023-04-15T01:39:15;11.38;;;9.50;;
28180;SDS011;15464;50.988;10.318;2023-04-15T01:41:42;17.50;;;12.85;;
28180;SDS011;15464;50.988;10.318;2023-04-15T01:44:09;14.65;;;11.27;;
28180;SDS011;15464;50.988;10.318;2023-04-15T01:46:36;11.25;;;9.65;;
28180;SDS011;15464;50.988;10.318;2023-04-15T01:49:03;12.70;;;11.05;;
28180;SDS011;15464;50.988;10.318;2023-04-15T01:51:29;11.32;;;10.13;;
28180;SDS011;15464;50.988;10.318;2023-04-15T01:53:57;12.73;;;9.80;;
28180;SDS011;15464;50.988;10.318;2023-04-15T01:56:23;10.88;;;9.77;;
28180;SDS011;15464;50.988;10.318;2023-04-15T01:58:50;17.88;;;13.88;;
28180;SDS011;15464;50.988;10.318;2023-04-15T02:01:17;13.15;;;11.27;;
28180;SDS011;15464;50.988;10.318;2023-04-15T02:03:47;13.40;;;12.20;;
28180;SDS011;15464;50.988;10.318;2023-04-15T02:06:14;15.50;;;12.77;;
28180;SDS011;15464;50.988;10.318;2023-04-15T02:08:41;12.52;;;11.23;;
28180;SDS011;15464;50.988;10.318;2023-04-15T02:11:07;13.38;;;12.00;;
28180;SDS011;15464;50.988;10.318;2023-04-15T02:13:34;16.65;;;12.35;;
28180;SDS011;15464;50.988;10.318;2023-04-15T02:16:01;16.25;;;12.68;;
28180;SDS011;15464;50.988;10.318;2023-04-15T02:18:28;14.55;;;11.32;;
28180;SDS011;15464;50.988;10.318;2023-04-15T02:20:55;15.95;;;12.15;;
28180;SDS011;15464;50.988;10.318;2023-04-15T02:23:24;17.30;;;13.20;;
28180;SDS011;15464;50.988;10.318;2023-04-15T02:25:51;15.63;;;12.60;;
28180;SDS011;15464;50.988;10.318;2023-04-15T02:28:19;14.88;;;12.73;;
28180;SDS011;15464;50.988;10.318;2023-04-15T02:30:47;14.52;;;11.73;;
28180;SDS011;15464;50.988;10.318;2023-04-15T02:33:18;11.77;;;10.57;;
28180;SDS011;15464;50.988;10.318;2023-04-15T02:35:46;13.05;;;11.48;;
28180;SDS011;15464;50.988;10.318;2023-04-15T02:38:13;14.23;;;12.73;;
28180;SDS011;15464;50.988;10.318;2023-04-15T02:40:42;16.05;;;13.43;;
28180;SDS011;15464;50.988;10.318;2023-04-15T02:43:08;13.30;;;11.85;;
28180;SDS011;15464;50.988;10.318;2023-04-15T02:45:35;20.10;;;14.55;;
28180;SDS011;15464;50.988;10.318;2023-04-15T02:48:02;14.00;;;11.85;;
28180;SDS011;15464;50.988;10.318;2023-04-15T02:50:31;13.02;;;11.40;;
28180;SDS011;15464;50.988;10.318;2023-04-15T02:52:59;13.77;;;11.40;;
28180;SDS011;15464;50.988;10.318;2023-04-15T02:55:27;12.70;;;11.18;;
28180;SDS011;15464;50.988;10.318;2023-04-15T02:57:54;14.00;;;12.50;;
28180;SDS011;15464;50.988;10.318;2023-04-15T03:00:21;13.38;;;11.38;;
28180;SDS011;15464;50.988;10.318;2023-04-15T03:02:50;11.80;;;10.55;;
28180;SDS011;15464;50.988;10.318;2023-04-15T03:05:22;16.20;;;12.75;;
28180;SDS011;15464;50.988;10.318;2023-04-15T03:07:52;14.20;;;12.77;;
28180;SDS011;15464;50.988;10.318;2023-04-15T03:10:19;13.68;;;12.32;;
28180;SDS011;15464;50.988;10.318;2023-04-15T03:12:46;14.73;;;12.25;;
28180;SDS011;15464;50.988;10.318;2023-04-15T03:15:14;14.60;;;12.38;;
28180;SDS011;15464;50.988;10.318;2023-04-15T03:17:40;15.75;;;13.98;;
28180;SDS011;15464;50.988;10.318;2023-04-15T03:20:07;14.60;;;12.95;;
28180;SDS011;15464;50.988;10.318;2023-04-15T03:22:34;14.13;;;12.57;;
28180;SDS011;15464;50.988;10.318;2023-04-15T03:25:01;16.50;;;13.32;;
28180;SDS011;15464;50.988;10.318;2023-04-15T03:27:28;13.57;;;11.18;;
28180;SDS011;15464;50.988;10.318;2023-04-15T03:29:54;12.93;;;11.52;;
28180;SDS011;15464;50.988;10.318;2023-04-15T03:32:22;13.90;;;11.32;;
28180;SDS011;15464;50.988;10.318;2023-04-15T03:34:48;12.45;;;10.02;;
28180;SDS011;15464;50.988;10.318;2023-04-15T03:37:15;17.25;;;15.30;;
28180;SDS011;15464;50.988;10.318;2023-04-15T03:39:42;16.08;;;13.52;;
28180;SDS011;15464;50.988;10.318;2023-04-15T03:42:08;15.35;;;13.80;;
28180;SDS011;15464;50.988;10.318;2023-04-15T03:44:35;15.98;;;14.05;;
28180;SDS011;15464;50.988;10.318;2023-04-15T03:47:02;14.73;;;13.20;;
28180;SDS011;15464;50.988;10.318;2023-04-15T03:49:29;13.27;;;11.73;;
28180;SDS011;15464;50.988;10.318;2023-04-15T03:51:55;16.50;;;13.77;;
28180;SDS011;15464;50.988;10.318;2023-04-15T03:54:22;12.70;;;11.40;;
28180;SDS011;15464;50.988;10.318;2023-04-15T03:56:49;22.90;;;12.10;;
28180;SDS011;15464;50.988;10.318;2023-04-15T03:59:16;13.10;;;11.73;;
28180;SDS011;15464;50.988;10.318;2023-04-15T04:01:42;12.57;;;10.35;;
28180;SDS011;15464;50.988;10.318;2023-04-15T04:04:09;11.50;;;10.30;;
28180;SDS011;15464;50.988;10.318;2023-04-15T04:06:36;12.88;;;11.52;;
28180;SDS011;15464;50.988;10.318;2023-04-15T04:09:03;10.80;;;9.70;;
28180;SDS011;15464;50.988;10.318;2023-04-15T04:11:29;17.55;;;14.52;;
28180;SDS011;15464;50.988;10.318;2023-04-15T04:13:56;13.77;;;12.32;;
28180;SDS011;15464;50.988;10.318;2023-04-15T04:16:23;14.38;;;11.52;;
28180;SDS011;15464;50.988;10.318;2023-04-15T04:18:50;14.70;;;12.88;;
28180;SDS011;15464;50.988;10.318;2023-04-15T04:21:17;15.35;;;12.82;;
28180;SDS011;15464;50.988;10.318;2023-04-15T04:23:44;14.77;;;13.13;;
28180;SDS011;15464;50.988;10.318;2023-04-15T04:26:10;17.42;;;13.73;;
28180;SDS011;15464;50.988;10.318;2023-04-15T04:28:37;14.30;;;12.32;;
28180;SDS011;15464;50.988;10.318;2023-04-15T04:31:06;13.00;;;11.70;;
28180;SDS011;15464;50.988;10.318;2023-04-15T04:33:33;13.30;;;11.98;;
28180;SDS011;15464;50.988;10.318;2023-04-15T04:35:59;13.75;;;12.30;;
28180;SDS011;15464;50.988;10.318;2023-04-15T04:38:26;17.17;;;13.25;;
28180;SDS011;15464;50.988;10.318;2023-04-15T04:40:53;13.93;;;12.52;;
28180;SDS011;15464;50.988;10.318;2023-04-15T04:43:20;13.00;;;11.70;;
28180;SDS011;15464;50.988;10.318;2023-04-15T04:45:47;13.98;;;12.48;;
28180;SDS011;15464;50.988;10.318;2023-04-15T04:48:13;15.48;;;12.98;;
28180;SDS011;15464;50.988;10.318;2023-04-15T04:50:40;13.98;;;11.77;;
28180;SDS011;15464;50.988;10.318;2023-04-15T04:53:07;14.27;;;12.80;;
28180;SDS011;15464;50.988;10.318;2023-04-15T04:55:34;14.00;;;12.52;;
28180;SDS011;15464;50.988;10.318;2023-04-15T04:58:02;13.13;;;11.82;;
28180;SDS011;15464;50.988;10.318;2023-04-15T05:00:28;13.25;;;11.80;;
28180;SDS011;15464;50.988;10.318;2023-04-15T05:02:55;14.30;;;10.95;;
28180;SDS011;15464;50.988;10.318;2023-04-15T05:05:22;14.82;;;12.45;;
28180;SDS011;15464;50.988;10.318;2023-04-15T05:07:49;14.32;;;12.10;;
28180;SDS011;15464;50.988;10.318;2023-04-15T05:10:16;13.15;;;11.85;;
28180;SDS011;15464;50.988;10.318;2023-04-15T05:12:43;13.10;;;11.77;;
28180;SDS011;15464;50.988;10.318;2023-04-15T05:15:10;13.27;;;11.52;;
28180;SDS011;15464;50.988;10.318;2023-04-15T05:17:37;12.15;;;10.95;;
28180;SDS011;15464;50.988;10.318;2023-04-15T05:20:04;13.18;;;11.77;;
28180;SDS011;15464;50.988;10.318;2023-04-15T05:22:31;12.02;;;10.80;;
28180;SDS011;15464;50.988;10.318;2023-04-15T05:24:58;12.40;;;10.90;;
28180;SDS011;15464;50.988;10.318;2023-04-15T05:27:25;11.85;;;10.70;;
28180;SDS011;15464;50.988;10.318;2023-04-15T05:29:51;12.98;;;11.50;;
28180;SDS011;15464;50.988;10.318;2023-04-15T05:32:18;12.15;;;10.93;;
28180;SDS011;15464;50.988;10.318;2023-04-15T05:34:45;12.32;;;11.07;;
28180;SDS011;15464;50.988;10.318;2023-04-15T05:37:12;12.32;;;10.48;;
28180;SDS011;15464;50.988;10.318;2023-04-15T05:39:38;11.40;;;10.25;;
28180;SDS011;15464;50.988;10.318;2023-04-15T05:42:05;11.27;;;10.07;;
28180;SDS011;15464;50.988;10.318;2023-04-15T05:44:32;11.45;;;10.25;;
28180;SDS011;15464;50.988;10.318;2023-04-15T05:46:59;10.10;;;9.10;;
28180;SDS011;15464;50.988;10.318;2023-04-15T05:49:26;10.23;;;9.23;;
28180;SDS011;15464;50.988;10.318;2023-04-15T05:51:52;11.10;;;9.57;;
28180;SDS011;15464;50.988;10.318;2023-04-15T05:54:19;10.45;;;9.27;;
28180;SDS011;15464;50.988;10.318;2023-04-15T05:56:48;10.02;;;9.02;;
28180;SDS011;15464;50.988;10.318;2023-04-15T05:59:15;10.63;;;9.60;;
28180;SDS011;15464;50.988;10.318;2023-04-15T06:01:42;11.07;;;9.98;;
28180;SDS011;15464;50.988;10.318;2023-04-15T06:04:09;12.30;;;11.00;;
28180;SDS011;15464;50.988;10.318;2023-04-15T06:06:36;11.18;;;10.15;;
28180;SDS011;15464;50.988;10.318;2023-04-15T06:09:03;12.02;;;10.60;;
28180;SDS011;15464;50.988;10.318;2023-04-15T06:11:30;11.77;;;10.57;;
28180;SDS011;15464;50.988;10.318;2023-04-15T06:13:57;11.77;;;10.07;;
28180;SDS011;15464;50.988;10.318;2023-04-15T06:16:24;12.30;;;11.07;;
28180;SDS011;15464;50.988;10.318;2023-04-15T06:18:50;12.82;;;11.52;;
28180;SDS011;15464;50.988;10.318;2023-04-15T06:21:17;12.48;;;11.30;;
28180;SDS011;15464;50.988;10.318;2023-04-15T06:23:44;12.45;;;11.18;;
28180;SDS011;15464;50.988;10.318;2023-04-15T06:26:11;13.30;;;11.90;;
28180;SDS011;15464;50.988;10.318;2023-04-15T06:28:37;12.85;;;11.50;;
28180;SDS011;15464;50.988;10.318;2023-04-15T06:31:04;13.70;;;11.80;;
28180;SDS011;15464;50.988;10.318;2023-04-15T06:33:30;12.43;;;11.13;;
28180;SDS011;15464;50.988;10.318;2023-04-15T06:35:57;12.20;;;11.00;;
28180;SDS011;15464;50.988;10.318;2023-04-15T06:38:24;13.30;;;10.63;;
28180;SDS011;15464;50.988;10.318;2023-04-15T06:40:51;11.38;;;10.10;;
28180;SDS011;15464;50.988;10.318;2023-04-15T06:43:17;13.32;;;12.02;;
28180;SDS011;15464;50.988;10.318;2023-04-15T06:45:44;11.82;;;10.63;;
28180;SDS011;15464;50.988;10.318;2023-04-15T06:48:11;12.80;;;11.50;;
28180;SDS011;15464;50.988;10.318;2023-04-15T06:50:38;11.40;;;10.30;;
28180;SDS011;15464;50.988;10.318;2023-04-15T06:53:05;11.13;;;10.02;;
28180;SDS011;15464;50.988;10.318;2023-04-15T06:55:32;10.27;;;9.35;;
28180;SDS011;15464;50.988;10.318;2023-04-15T06:57:59;13.05;;;11.65;;
28180;SDS011;15464;50.988;10.318;2023-04-15T07:00:26;10.60;;;9.60;;
28180;SDS011;15464;50.988;10.318;2023-04-15T07:02:53;10.52;;;9.52;;
28180;SDS011;15464;50.988;10.318;2023-04-15T07:05:21;11.00;;;9.93;;
28180;SDS011;15464;50.988;10.318;2023-04-15T07:07:48;11.20;;;10.10;;
28180;SDS011;15464;50.988;10.318;2023-04-15T07:10:15;11.70;;;10.55;;
28180;SDS011;15464;50.988;10.318;2023-04-15T07:12:42;11.40;;;10.25;;
28180;SDS011;15464;50.988;10.318;2023-04-15T07:15:09;10.75;;;9.75;;
28180;SDS011;15464;50.988;10.318;2023-04-15T07:17:36;11.80;;;10.60;;
28180;SDS011;15464;50.988;10.318;2023-04-15T07:20:02;11.98;;;10.73;;
28180;SDS011;15464;50.988;10.318;2023-04-15T07:22:30;11.98;;;9.93;;
28180;SDS011;15464;50.988;10.318;2023-04-15T07:24:57;11.60;;;10.50;;
28180;SDS011;15464;50.988;10.318;2023-04-15T07:27:23;12.32;;;10.23;;
28180;SDS011;15464;50.988;10.318;2023-04-15T07:29:51;11.25;;;10.15;;
28180;SDS011;15464;50.988;10.318;2023-04-15T07:32:18;10.13;;;9.13;;
28180;SDS011;15464;50.988;10.318;2023-04-15T07:34:45;11.98;;;10.82;;
28180;SDS011;15464;50.988;10.318;2023-04-15T07:37:12;15.43;;;13.32;;
28180;SDS011;15464;50.988;10.318;2023-04-15T07:39:39;11.07;;;9.98;;
28180;SDS011;15464;50.988;10.318;2023-04-15T07:42:05;10.68;;;9.63;;
28180;SDS011;15464;50.988;10.318;2023-04-15T07:44:32;10.98;;;9.88;;
28180;SDS011;15464;50.988;10.318;2023-04-15T07:46:59;11.60;;;10.48;;
28180;SDS011;15464;50.988;10.318;2023-04-15T07:49:26;11.25;;;10.20;;
28180;SDS011;15464;50.988;10.318;2023-04-15T07:51:52;11.85;;;10.63;;
28180;SDS011;15464;50.988;10.318;2023-04-15T07:54:19;12.77;;;11.30;;
28180;SDS011;15464;50.988;10.318;2023-04-15T07:56:46;13.82;;;11.93;;
28180;SDS011;15464;50.988;10.318;2023-04-15T07:59:12;12.18;;;10.23;;
28180;SDS011;15464;50.988;10.318;2023-04-15T08:01:40;10.93;;;9.93;;
28180;SDS011;15464;50.988;10.318;2023-04-15T08:04:07;10.45;;;9.45;;
28180;SDS011;15464;50.988;10.318;2023-04-15T08:06:34;10.15;;;9.15;;
28180;SDS011;15464;50.988;10.318;2023-04-15T08:09:01;10.63;;;9.52;;
28180;SDS011;15464;50.988;10.318;2023-04-15T08:11:29;15.80;;;12.15;;
28180;SDS011;15464;50.988;10.318;2023-04-15T08:13:56;9.02;;;8.13;;
28180;SDS011;15464;50.988;10.318;2023-04-15T08:16:24;9.50;;;8.50;;
28180;SDS011;15464;50.988;10.318;2023-04-15T08:18:53;8.90;;;8.10;;
28180;SDS011;15464;50.988;10.318;2023-04-15T08:21:21;9.07;;;8.18;;
28180;SDS011;15464;50.988;10.318;2023-04-15T08:23:49;8.13;;;7.32;;
28180;SDS011;15464;50.988;10.318;2023-04-15T08:28:45;10.73;;;7.95;;
28180;SDS011;15464;50.988;10.318;2023-04-15T08:31:12;9.20;;;7.95;;
28180;SDS011;15464;50.988;10.318;2023-04-15T08:33:40;10.57;;;8.75;;
28180;SDS011;15464;50.988;10.318;2023-04-15T08:36:07;8.63;;;7.82;;
28180;SDS011;15464;50.988;10.318;2023-04-15T08:38:34;8.15;;;7.35;;
28180;SDS011;15464;50.988;10.318;2023-04-15T08:41:10;8.25;;;7.35;;
28180;SDS011;15464;50.988;10.318;2023-04-15T08:43:48;8.55;;;7.35;;
28180;SDS011;15464;50.988;10.318;2023-04-15T08:46:20;8.55;;;6.68;;
28180;SDS011;15464;50.988;10.318;2023-04-15T08:48:47;7.90;;;7.10;;
28180;SDS011;15464;50.988;10.318;2023-04-15T08:51:15;7.40;;;6.70;;
28180;SDS011;15464;50.988;10.318;2023-04-15T08:53:43;7.07;;;5.72;;
28180;SDS011;15464;50.988;10.318;2023-04-15T08:56:13;7.57;;;6.88;;
28180;SDS011;15464;50.988;10.318;2023-04-15T08:58:42;6.93;;;6.07;;
28180;SDS011;15464;50.988;10.318;2023-04-15T09:01:10;6.35;;;5.75;;
28180;SDS011;15464;50.988;10.318;2023-04-15T09:03:38;5.68;;;5.18;;
28180;SDS011;15464;50.988;10.318;2023-04-15T09:06:06;7.25;;;6.18;;
28180;SDS011;15464;50.988;10.318;2023-04-15T09:08:33;6.88;;;6.18;;
28180;SDS011;15464;50.988;10.318;2023-04-15T09:11:02;7.20;;;6.43;;
28180;SDS011;15464;50.988;10.318;2023-04-15T09:13:29;7.47;;;6.22;;
28180;SDS011;15464;50.988;10.318;2023-04-15T09:15:56;6.40;;;5.60;;
28180;SDS011;15464;50.988;10.318;2023-04-15T09:18:30;6.85;;;5.85;;
28180;SDS011;15464;50.988;10.318;2023-04-15T09:21:11;7.43;;;6.72;;
28180;SDS011;15464;50.988;10.318;2023-04-15T09:23:53;7.93;;;6.22;;
28180;SDS011;15464;50.988;10.318;2023-04-15T09:26:29;6.50;;;5.82;;
28180;SDS011;15464;50.988;10.318;2023-04-15T09:29:06;5.90;;;5.30;;
28180;SDS011;15464;50.988;10.318;2023-04-15T09:31:35;6.05;;;5.45;;
28180;SDS011;15464;50.988;10.318;2023-04-15T09:34:02;6.97;;;5.93;;
28180;SDS011;15464;50.988;10.318;2023-04-15T09:36:34;5.80;;;5.20;;
28180;SDS011;15464;50.988;10.318;2023-04-15T09:39:06;5.35;;;4.85;;
28180;SDS011;15464;50.988;10.318;2023-04-15T09:41:33;5.63;;;5.00;;
28180;SDS011;15464;50.988;10.318;2023-04-15T09:44:00;9.07;;;7.13;;
28180;SDS011;15464;50.988;10.318;2023-04-15T09:46:40;6.47;;;5.38;;
28180;SDS011;15464;50.988;10.318;2023-04-15T09:49:09;4.43;;;4.03;;
28180;SDS011;15464;50.988;10.318;2023-04-15T09:51:36;4.35;;;3.95;;
28180;SDS011;15464;50.988;10.318;2023-04-15T09:54:03;4.72;;;4.22;;
28180;SDS011;15464;50.988;10.318;2023-04-15T09:56:31;6.72;;;5.28;;
28180;SDS011;15464;50.988;10.318;2023-04-15T10:01:26;4.30;;;3.90;;
28180;SDS011;15464;50.988;10.318;2023-04-15T10:03:54;4.38;;;3.63;;
28180;SDS011;15464;50.988;10.318;2023-04-15T10:06:24;4.13;;;3.72;;
28180;SDS011;15464;50.988;10.318;2023-04-15T10:08:52;3.72;;;3.42;;
28180;SDS011;15464;50.988;10.318;2023-04-15T10:11:19;4.22;;;3.83;;
28180;SDS011;15464;50.988;10.318;2023-04-15T10:13:49;8.23;;;5.65;;
28180;SDS011;15464;50.988;10.318;2023-04-15T10:16:18;8.65;;;6.18;;
28180;SDS011;15464;50.988;10.318;2023-04-15T10:18:46;4.88;;;3.85;;
28180;SDS011;15464;50.988;10.318;2023-04-15T10:21:21;4.20;;;3.60;;
28180;SDS011;15464;50.988;10.318;2023-04-15T10:23:49;4.40;;;4.00;;
28180;SDS011;15464;50.988;10.318;2023-04-15T10:26:16;3.60;;;2.90;;
28180;SDS011;15464;50.988;10.318;2023-04-15T10:28:43;4.20;;;3.80;;
28180;SDS011;15464;50.988;10.318;2023-04-15T10:31:12;9.68;;;6.88;;
28180;SDS011;15464;50.988;10.318;2023-04-15T10:33:42;4.00;;;3.60;;
28180;SDS011;15464;50.988;10.318;2023-04-15T10:36:10;3.53;;;3.22;;
28180;SDS011;15464;50.988;10.318;2023-04-15T10:41:24;3.85;;;3.50;;
28180;SDS011;15464;50.988;10.318;2023-04-15T10:44:02;3.85;;;3.42;;
28180;SDS011;15464;50.988;10.318;2023-04-15T10:46:37;5.25;;;3.33;;
28180;SDS011;15464;50.988;10.318;2023-04-15T10:49:08;3.10;;;2.80;;
28180;SDS011;15464;50.988;10.318;2023-04-15T10:51:37;4.25;;;3.20;;
28180;SDS011;15464;50.988;10.318;2023-04-15T10:54:11;2.50;;;2.30;;
28180;SDS011;15464;50.988;10.318;2023-04-15T10:56:47;3.13;;;2.78;;
28180;SDS011;15464;50.988;10.318;2023-04-15T10:59:17;2.88;;;2.63;;
28180;SDS011;15464;50.988;10.318;2023-04-15T11:01:53;2.88;;;2.58;;
28180;SDS011;15464;50.988;10.318;2023-04-15T11:12:43;3.73;;;2.70;;
28180;SDS011;15464;50.988;10.318;2023-04-15T11:15:26;2.13;;;1.92;;
28180;SDS011;15464;50.988;10.318;2023-04-15T11:17:56;3.63;;;2.33;;
28180;SDS011;15464;50.988;10.318;2023-04-15T11:20:23;2.55;;;2.22;;
28180;SDS011;15464;50.988;10.318;2023-04-15T11:22:52;2.05;;;1.85;;
28180;SDS011;15464;50.988;10.318;2023-04-15T11:25:39;2.45;;;2.00;;
28180;SDS011;15464;50.988;10.318;2023-04-15T11:28:07;1.90;;;1.80;;
28180;SDS011;15464;50.988;10.318;2023-04-15T11:30:34;2.05;;;1.80;;
28180;SDS011;15464;50.988;10.318;2023-04-15T11:33:06;3.95;;;2.63;;
28180;SDS011;15464;50.988;10.318;2023-04-15T11:35:34;1.70;;;1.60;;
28180;SDS011;15464;50.988;10.318;2023-04-15T11:38:04;3.85;;;3.45;;
28180;SDS011;15464;50.988;10.318;2023-04-15T11:40:35;2.97;;;2.58;;
28180;SDS011;15464;50.988;10.318;2023-04-15T11:43:07;2.13;;;1.92;;
28180;SDS011;15464;50.988;10.318;2023-04-15T11:45:36;2.55;;;2.35;;
28180;SDS011;15464;50.988;10.318;2023-04-15T11:48:07;2.70;;;2.50;;
28180;SDS011;15464;50.988;10.318;2023-04-15T11:50:36;3.60;;;2.75;;
28180;SDS011;15464;50.988;10.318;2023-04-15T11:53:06;2.30;;;2.10;;
28180;SDS011;15464;50.988;10.318;2023-04-15T11:55:50;2.45;;;2.25;;
28180;SDS011;15464;50.988;10.318;2023-04-15T11:58:24;2.15;;;1.92;;
28180;SDS011;15464;50.988;10.318;2023-04-15T12:00:58;3.00;;;2.63;;
28180;SDS011;15464;50.988;10.318;2023-04-15T12:03:29;2.85;;;2.40;;
28180;SDS011;15464;50.988;10.318;2023-04-15T12:06:03;3.10;;;2.80;;
28180;SDS011;15464;50.988;10.318;2023-04-15T12:11:29;2.20;;;2.00;;
28180;SDS011;15464;50.988;10.318;2023-04-15T12:14:03;1.92;;;1.83;;
28180;SDS011;15464;50.988;10.318;2023-04-15T12:16:36;2.20;;;2.00;;
28180;SDS011;15464;50.988;10.318;2023-04-15T12:19:25;1.88;;;1.77;;
28180;SDS011;15464;50.988;10.318;2023-04-15T12:22:03;2.23;;;2.03;;
28180;SDS011;15464;50.988;10.318;2023-04-15T12:24:40;1.80;;;1.70;;
28180;SDS011;15464;50.988;10.318;2023-04-15T12:27:13;2.20;;;2.00;;
28180;SDS011;15464;50.988;10.318;2023-04-15T12:29:41;2.10;;;1.90;;
28180;SDS011;15464;50.988;10.318;2023-04-15T12:32:12;2.35;;;2.15;;
28180;SDS011;15464;50.988;10.318;2023-04-15T12:34:48;2.50;;;2.30;;
28180;SDS011;15464;50.988;10.318;2023-04-15T12:37:16;1.88;;;1.75;;
28180;SDS011;15464;50.988;10.318;2023-04-15T12:39:44;2.42;;;2.22;;
28180;SDS011;15464;50.988;10.318;2023-04-15T12:42:14;3.03;;;2.83;;
28180;SDS011;15464;50.988;10.318;2023-04-15T12:44:42;1.92;;;1.83;;
28180;SDS011;15464;50.988;10.318;2023-04-15T12:47:09;3.00;;;2.30;;
28180;SDS011;15464;50.988;10.318;2023-04-15T12:49:37;2.95;;;1.98;;
28180;SDS011;15464;50.988;10.318;2023-04-15T12:52:04;1.90;;;1.80;;
28180;SDS011;15464;50.988;10.318;2023-04-15T12:54:31;2.10;;;1.90;;
28180;SDS011;15464;50.988;10.318;2023-04-15T12:56:58;2.28;;;1.95;;
28180;SDS011;15464;50.988;10.318;2023-04-15T12:59:26;1.77;;;1.67;;
28180;SDS011;15464;50.988;10.318;2023-04-15T13:04:27;2.38;;;2.17;;
28180;SDS011;15464;50.988;10.318;2023-04-15T13:06:56;2.42;;;2.20;;
28180;SDS011;15464;50.988;10.318;2023-04-15T13:09:23;2.72;;;2.53;;
28180;SDS011;15464;50.988;10.318;2023-04-15T13:11:50;2.30;;;2.03;;
28180;SDS011;15464;50.988;10.318;2023-04-15T13:14:18;2.40;;;2.20;;
28180;SDS011;15464;50.988;10.318;2023-04-15T13:16:44;3.03;;;2.72;;
28180;SDS011;15464;50.988;10.318;2023-04-15T13:19:11;2.83;;;2.63;;
28180;SDS011;15464;50.988;10.318;2023-04-15T13:21:38;2.92;;;2.72;;
28180;SDS011;15464;50.988;10.318;2023-04-15T13:24:04;2.63;;;2.30;;
28180;SDS011;15464;50.988;10.318;2023-04-15T13:26:32;3.65;;;2.60;;
28180;SDS011;15464;50.988;10.318;2023-04-15T13:28:59;2.40;;;2.20;;
28180;SDS011;15464;50.988;10.318;2023-04-15T13:31:27;2.60;;;2.40;;
28180;SDS011;15464;50.988;10.318;2023-04-15T13:33:55;3.00;;;2.50;;
28180;SDS011;15464;50.988;10.318;2023-04-15T13:36:22;2.60;;;2.40;;
28180;SDS011;15464;50.988;10.318;2023-04-15T13:38:48;2.78;;;2.58;;
28180;SDS011;15464;50.988;10.318;2023-04-15T13:41:16;2.70;;;2.45;;
28180;SDS011;15464;50.988;10.318;2023-04-15T13:43:43;2.67;;;2.40;;
28180;SDS011;15464;50.988;10.318;2023-04-15T13:46:10;2.88;;;2.30;;
28180;SDS011;15464;50.988;10.318;2023-04-15T13:48:36;2.72;;;2.40;;
28180;SDS011;15464;50.988;10.318;2023-04-15T13:51:03;2.63;;;2.40;;
28180;SDS011;15464;50.988;10.318;2023-04-15T13:53:30;2.90;;;2.63;;
28180;SDS011;15464;50.988;10.318;2023-04-15T13:56:04;2.58;;;2.38;;
28180;SDS011;15464;50.988;10.318;2023-04-15T13:58:31;3.10;;;2.80;;
28180;SDS011;15464;50.988;10.318;2023-04-15T14:00:58;3.00;;;2.70;;
28180;SDS011;15464;50.988;10.318;2023-04-15T14:03:25;3.22;;;2.92;;
28180;SDS011;15464;50.988;10.318;2023-04-15T14:05:52;2.78;;;2.58;;
28180;SDS011;15464;50.988;10.318;2023-04-15T14:08:21;2.60;;;2.40;;
28180;SDS011;15464;50.988;10.318;2023-04-15T14:10:48;2.40;;;2.20;;
28180;SDS011;15464;50.988;10.318;2023-04-15T14:13:15;3.15;;;2.85;;
28180;SDS011;15464;50.988;10.318;2023-04-15T14:15:42;2.92;;;2.60;;
28180;SDS011;15464;50.988;10.318;2023-04-15T14:18:08;3.60;;;3.30;;
28180;SDS011;15464;50.988;10.318;2023-04-15T14:20:35;3.08;;;2.78;;
28180;SDS011;15464;50.988;10.318;2023-04-15T14:23:02;2.67;;;2.47;;
28180;SDS011;15464;50.988;10.318;2023-04-15T14:25:28;3.92;;;3.50;;
28180;SDS011;15464;50.988;10.318;2023-04-15T14:27:59;3.10;;;2.80;;
28180;SDS011;15464;50.988;10.318;2023-04-15T14:30:26;3.33;;;3.03;;
28180;SDS011;15464;50.988;10.318;2023-04-15T14:32:53;3.10;;;2.80;;
28180;SDS011;15464;50.988;10.318;2023-04-15T14:35:19;3.47;;;3.17;;
28180;SDS011;15464;50.988;10.318;2023-04-15T14:37:46;9.15;;;6.15;;
28180;SDS011;15464;50.988;10.318;2023-04-15T14:40:13;4.53;;;3.92;;
28180;SDS011;15464;50.988;10.318;2023-04-15T14:42:39;4.00;;;3.60;;
28180;SDS011;15464;50.988;10.318;2023-04-15T14:45:06;4.15;;;3.70;;
28180;SDS011;15464;50.988;10.318;2023-04-15T14:47:34;4.45;;;3.70;;